createdAt,value
2022-11-16T00:01:32.101Z,6.34
2022-11-16T00:04:01.514Z,6.32
2022-11-16T00:06:29.154Z,6.31
2022-11-16T00:09:18.929Z,6.34
2022-11-16T00:11:46.355Z,6.37
2022-11-16T00:14:13.209Z,6.34
2022-11-16T00:16:40.339Z,6.30
2022-11-16T00:19:07.482Z,6.41
2022-11-16T00:21:34.500Z,6.35
2022-11-16T00:24:01.859Z,6.32
2022-11-16T00:26:29.045Z,6.25
2022-11-16T00:28:56.064Z,6.33
2022-11-16T00:31:23.431Z,6.31
2022-11-16T00:33:50.850Z,6.39
2022-11-16T00:36:17.878Z,6.33
2022-11-16T00:38:44.809Z,6.41
2022-11-16T00:41:13.473Z,6.41
2022-11-16T00:43:40.313Z,6.37
2022-11-16T00:46:07.417Z,6.35
2022-11-16T00:48:34.893Z,6.35
2022-11-16T00:51:02.171Z,6.32
2022-11-16T00:53:29.106Z,6.36
2022-11-16T00:55:56.212Z,6.30
2022-11-16T00:58:24.016Z,6.31
2022-11-16T01:00:51.336Z,6.32
2022-11-16T01:03:18.514Z,6.35
2022-11-16T01:05:49.280Z,6.35
2022-11-16T01:08:19.140Z,6.36
2022-11-16T01:10:49.236Z,6.33
2022-11-16T01:13:19.092Z,6.35
2022-11-16T01:15:49.490Z,6.39
2022-11-16T01:18:16.598Z,6.40
2022-11-16T01:20:43.473Z,6.37
2022-11-16T01:23:10.900Z,6.37
2022-11-16T01:25:37.772Z,6.39
2022-11-16T01:28:04.797Z,6.48
2022-11-16T01:30:33.782Z,6.43
2022-11-16T01:33:01.168Z,6.43
2022-11-16T01:35:28.086Z,6.49
2022-11-16T01:37:55.566Z,6.40
2022-11-16T01:40:22.626Z,6.53
2022-11-16T01:42:49.485Z,6.41
2022-11-16T01:45:24.044Z,6.46
2022-11-16T01:47:52.856Z,6.56
2022-11-16T01:50:20.564Z,6.51
2022-11-16T01:53:00.908Z,6.45
2022-11-16T01:55:30.803Z,6.47
2022-11-16T01:57:59.503Z,6.49
2022-11-16T02:00:27.600Z,6.61
2022-11-16T02:02:54.896Z,6.62
2022-11-16T02:05:56.967Z,6.49
2022-11-16T02:09:22.157Z,6.54
2022-11-16T02:11:55.898Z,6.49
2022-11-16T02:14:44.613Z,6.56
2022-11-16T02:17:36.274Z,6.76
2022-11-16T02:20:27.261Z,6.64
2022-11-16T02:23:22.761Z,6.55
2022-11-16T02:26:23.456Z,6.63
2022-11-16T02:29:23.329Z,6.58
2022-11-16T02:32:12.558Z,6.56
2022-11-16T02:34:47.428Z,6.69
2022-11-16T02:37:17.772Z,6.58
2022-11-16T02:39:46.822Z,6.57
2022-11-16T02:42:28.981Z,6.60
2022-11-16T02:44:58.139Z,6.58
2022-11-16T02:47:29.089Z,6.61
2022-11-16T02:49:59.569Z,6.64
2022-11-16T02:52:28.864Z,6.60
2022-11-16T02:54:55.881Z,6.57
2022-11-16T02:57:29.750Z,6.62
2022-11-16T02:59:58.285Z,6.69
2022-11-16T03:03:04.393Z,6.61
2022-11-16T03:05:36.985Z,6.60
2022-11-16T03:08:36.654Z,6.63
2022-11-16T03:11:30.072Z,6.62
2022-11-16T03:14:02.071Z,6.61
2022-11-16T03:16:35.478Z,6.61
2022-11-16T03:19:10.685Z,6.59
2022-11-16T03:21:43.539Z,6.62
2022-11-16T03:24:10.777Z,6.65
2022-11-16T03:26:51.025Z,6.64
2022-11-16T03:29:23.966Z,6.64
2022-11-16T03:31:54.427Z,6.64
2022-11-16T03:34:25.970Z,6.63
2022-11-16T03:36:53.085Z,6.65
2022-11-16T03:39:27.032Z,6.68
2022-11-16T03:41:54.864Z,6.66
2022-11-16T03:44:22.228Z,6.76
2022-11-16T03:46:49.097Z,6.69
2022-11-16T03:49:16.573Z,6.64
2022-11-16T03:51:43.539Z,6.71
2022-11-16T03:54:10.489Z,6.62
2022-11-16T03:56:39.581Z,6.61
2022-11-16T03:59:06.460Z,6.64
2022-11-16T04:01:33.351Z,6.63
2022-11-16T04:04:00.794Z,6.64
2022-11-16T04:06:47.296Z,6.70
2022-11-16T04:09:33.099Z,6.69
2022-11-16T04:12:18.404Z,6.73
2022-11-16T04:15:03.756Z,6.69
2022-11-16T04:17:49.645Z,6.70
2022-11-16T04:20:35.469Z,6.79
2022-11-16T04:23:27.429Z,6.74
2022-11-16T04:25:54.973Z,6.66
2022-11-16T04:28:25.662Z,6.71
2022-11-16T04:31:25.677Z,6.76
2022-11-16T04:34:13.404Z,6.68
2022-11-16T04:36:59.807Z,6.65
2022-11-16T04:39:27.737Z,6.72
2022-11-16T04:42:13.363Z,6.66
2022-11-16T04:44:59.088Z,6.66
2022-11-16T04:47:26.339Z,6.66
2022-11-16T04:49:53.443Z,6.68
2022-11-16T04:52:20.846Z,6.67
2022-11-16T04:54:48.811Z,6.63
2022-11-16T04:57:16.197Z,6.77
2022-11-16T04:59:44.834Z,6.81
2022-11-16T05:02:13.124Z,6.66
2022-11-16T05:04:42.685Z,6.63
2022-11-16T05:07:11.942Z,6.66
2022-11-16T05:09:42.796Z,6.73
2022-11-16T05:12:17.252Z,6.66
2022-11-16T05:14:44.841Z,6.65
2022-11-16T05:17:13.634Z,6.68
2022-11-16T05:19:59.239Z,6.68
2022-11-16T05:22:26.569Z,6.80
2022-11-16T05:24:54.365Z,6.68
2022-11-16T05:27:22.965Z,6.64
2022-11-16T05:29:50.628Z,6.62
2022-11-16T05:32:19.541Z,6.77
2022-11-16T05:34:49.476Z,6.81
2022-11-16T05:37:17.689Z,6.65
2022-11-16T05:39:45.306Z,6.69
2022-11-16T05:42:13.353Z,6.80
2022-11-16T05:44:40.859Z,6.74
2022-11-16T05:47:08.945Z,6.74
2022-11-16T05:49:35.843Z,6.73
2022-11-16T05:52:03.903Z,6.74
2022-11-16T05:54:31.336Z,6.80
2022-11-16T05:56:58.235Z,6.71
2022-11-16T05:59:25.393Z,6.71
2022-11-16T06:01:52.671Z,6.71
2022-11-16T06:04:24.762Z,6.75
2022-11-16T06:06:53.284Z,6.74
2022-11-16T06:09:20.607Z,6.76
2022-11-16T06:11:48.147Z,6.74
2022-11-16T06:14:16.060Z,6.83
2022-11-16T06:16:43.855Z,6.78
2022-11-16T06:19:11.099Z,6.82
2022-11-16T06:21:38.227Z,6.93
2022-11-16T06:24:09.154Z,6.96
2022-11-16T06:26:37.040Z,6.98
2022-11-16T06:29:04.412Z,7.10
2022-11-16T06:31:33.126Z,6.89
2022-11-16T06:34:00.561Z,6.89
2022-11-16T06:36:28.674Z,6.86
2022-11-16T06:38:59.088Z,6.86
2022-11-16T06:41:27.248Z,6.92
2022-11-16T06:43:54.214Z,6.98
2022-11-16T06:46:21.999Z,6.94
2022-11-16T06:48:48.856Z,6.98
2022-11-16T06:51:15.896Z,6.92
2022-11-16T06:53:43.016Z,6.95
2022-11-16T06:56:12.504Z,6.97
2022-11-16T06:58:42.954Z,6.95
2022-11-16T07:01:11.651Z,7.03
2022-11-16T07:03:39.597Z,7.00
2022-11-16T07:06:08.793Z,7.03
2022-11-16T07:08:36.557Z,7.05
2022-11-16T07:11:08.149Z,6.99
2022-11-16T07:13:36.813Z,6.99
2022-11-16T07:16:05.736Z,6.97
2022-11-16T07:18:34.810Z,6.98
2022-11-16T07:21:10.550Z,6.96
2022-11-16T07:23:38.363Z,7.05
2022-11-16T07:26:07.100Z,7.04
2022-11-16T07:28:35.457Z,7.06
2022-11-16T07:31:04.568Z,7.12
2022-11-16T07:33:32.034Z,7.06
2022-11-16T07:36:08.216Z,7.14
2022-11-16T07:38:35.694Z,7.40
2022-11-16T07:41:05.266Z,7.18
2022-11-16T07:43:37.023Z,7.03
2022-11-16T07:46:44.720Z,7.04
2022-11-16T07:48:52.949Z,7.05
2022-11-16T07:51:23.667Z,7.22
2022-11-16T07:53:57.955Z,7.21
2022-11-16T07:56:25.456Z,7.16
2022-11-16T07:58:52.541Z,7.26
2022-11-16T08:01:20.437Z,7.21
2022-11-16T08:03:48.141Z,7.26
2022-11-16T08:06:17.986Z,7.16
2022-11-16T08:08:44.950Z,7.06
2022-11-16T08:11:13.396Z,7.09
2022-11-16T08:13:41.348Z,7.18
2022-11-16T08:16:15.471Z,7.18
2022-11-16T08:18:44.400Z,7.19
2022-11-16T08:21:15.233Z,7.25
2022-11-16T08:23:44.670Z,7.39
2022-11-16T08:26:17.080Z,7.23
2022-11-16T08:28:46.771Z,7.24
2022-11-16T08:31:17.804Z,7.14
2022-11-16T08:33:46.459Z,7.12
2022-11-16T08:36:17.353Z,7.17
2022-11-16T08:38:45.553Z,7.27
2022-11-16T08:41:13.475Z,7.27
2022-11-16T08:43:40.810Z,7.17
2022-11-16T08:46:09.108Z,7.18
2022-11-16T08:48:39.587Z,7.22
2022-11-16T08:51:17.607Z,7.24
2022-11-16T08:53:49.052Z,7.23
2022-11-16T08:56:18.084Z,7.28
2022-11-16T08:58:47.405Z,7.37
2022-11-16T09:01:17.299Z,7.33
2022-11-16T09:03:44.760Z,7.37
2022-11-16T09:06:12.620Z,7.34
2022-11-16T09:08:42.334Z,7.43
2022-11-16T09:11:12.176Z,7.40
2022-11-16T09:13:39.286Z,7.46
2022-11-16T09:16:06.326Z,7.52
2022-11-16T09:18:33.843Z,7.56
2022-11-16T09:21:00.991Z,7.54
2022-11-16T09:23:27.918Z,7.56
2022-11-16T09:25:55.056Z,7.76
2022-11-16T09:28:22.642Z,7.64
2022-11-16T09:30:52.618Z,7.60
2022-11-16T09:33:19.776Z,7.56
2022-11-16T09:35:47.114Z,7.56
2022-11-16T09:38:20.712Z,7.68
2022-11-16T09:40:51.329Z,7.69
2022-11-16T09:43:44.100Z,7.77
2022-11-16T09:46:26.697Z,8.05
2022-11-16T09:48:54.154Z,7.94
2022-11-16T09:51:21.872Z,7.94
2022-11-16T09:54:02.709Z,7.95
2022-11-16T09:56:33.334Z,7.90
2022-11-16T09:59:13.581Z,7.96
2022-11-16T10:01:52.354Z,8.04
2022-11-16T10:04:38.563Z,8.28
2022-11-16T10:07:10.604Z,8.37
2022-11-16T10:09:37.773Z,8.30
2022-11-16T10:12:43.623Z,8.23
2022-11-16T10:15:16.804Z,8.31
2022-11-16T10:17:56.272Z,8.06
2022-11-16T10:20:32.461Z,7.98
2022-11-16T10:23:25.420Z,8.14
2022-11-16T10:26:23.610Z,8.00
2022-11-16T10:28:59.873Z,8.03
2022-11-16T10:31:57.789Z,7.91
2022-11-16T10:34:26.894Z,7.95
2022-11-16T10:37:03.386Z,7.94
2022-11-16T10:39:31.445Z,8.04
2022-11-16T10:42:07.144Z,7.90
2022-11-16T10:44:38.683Z,7.99
2022-11-16T10:47:12.604Z,8.08
2022-11-16T10:49:49.503Z,8.04
2022-11-16T10:52:16.630Z,8.18
2022-11-16T10:54:44.581Z,8.03
2022-11-16T10:57:14.042Z,8.20
2022-11-16T10:59:47.065Z,8.19
2022-11-16T11:02:22.961Z,8.14
2022-11-16T11:05:02.169Z,8.13
2022-11-16T11:07:35.274Z,8.07
2022-11-16T11:10:02.608Z,8.11
2022-11-16T11:12:38.535Z,8.01
2022-11-16T11:15:26.281Z,8.08
2022-11-16T11:18:17.729Z,8.14
2022-11-16T11:20:47.964Z,8.17
2022-11-16T11:23:23.081Z,8.24
2022-11-16T11:25:53.576Z,8.25
2022-11-16T11:28:30.025Z,8.21
2022-11-16T11:30:57.013Z,8.29
2022-11-16T11:33:26.248Z,8.21
2022-11-16T11:36:05.440Z,8.30
2022-11-16T11:38:33.772Z,8.24
2022-11-16T11:41:05.025Z,8.22
2022-11-16T11:43:34.295Z,8.20
2022-11-16T11:46:12.001Z,8.07
2022-11-16T11:48:48.121Z,8.16
2022-11-16T11:51:41.306Z,8.17
2022-11-16T11:54:23.684Z,8.13
2022-11-16T11:56:50.641Z,8.14
2022-11-16T11:59:24.217Z,8.08
2022-11-16T12:02:07.559Z,8.15
2022-11-16T12:04:57.320Z,8.19
2022-11-16T12:07:33.653Z,8.08
2022-11-16T12:10:20.943Z,8.03
2022-11-16T12:13:00.617Z,8.03
2022-11-16T12:15:36.084Z,7.98
2022-11-16T12:18:11.792Z,8.12
2022-11-16T12:21:09.051Z,8.24
2022-11-16T12:23:58.506Z,8.04
2022-11-16T12:26:51.391Z,8.28
2022-11-16T12:29:28.564Z,8.15
2022-11-16T12:32:21.908Z,8.17
2022-11-16T12:35:12.065Z,8.21
2022-11-16T12:38:00.752Z,8.11
2022-11-16T12:40:30.550Z,8.11
2022-11-16T12:43:06.370Z,8.19
2022-11-16T12:45:53.918Z,8.12
2022-11-16T12:48:39.701Z,8.21
2022-11-16T12:51:37.289Z,8.15
2022-11-16T12:54:13.274Z,8.03
2022-11-16T12:57:20.602Z,8.05
2022-11-16T13:00:06.389Z,8.02
2022-11-16T13:02:46.884Z,7.96
2022-11-16T13:05:19.234Z,8.06
2022-11-16T13:07:48.557Z,8.02
2022-11-16T13:10:22.712Z,7.98
2022-11-16T13:13:03.941Z,8.07
2022-11-16T13:15:41.290Z,8.04
2022-11-16T13:18:13.452Z,8.12
2022-11-16T13:20:52.598Z,8.02
2022-11-16T13:23:28.528Z,8.12
2022-11-16T13:26:10.251Z,8.14
2022-11-16T13:28:54.646Z,8.07
2022-11-16T13:31:32.730Z,8.08
2022-11-16T13:34:02.086Z,8.07
2022-11-16T13:36:32.179Z,8.05
2022-11-16T13:38:59.071Z,8.05
2022-11-16T13:41:38.765Z,8.07
2022-11-16T13:44:18.773Z,8.08
2022-11-16T13:46:56.551Z,8.02
2022-11-16T13:49:41.469Z,8.20
2022-11-16T13:52:54.038Z,7.98
2022-11-16T13:55:14.213Z,8.01
2022-11-16T13:57:49.822Z,8.04
2022-11-16T14:00:29.897Z,8.14
2022-11-16T14:03:11.931Z,8.09
2022-11-16T14:05:41.679Z,8.12
2022-11-16T14:08:23.997Z,8.31
2022-11-16T14:10:50.729Z,8.08
2022-11-16T14:13:45.671Z,8.14
2022-11-16T14:16:15.342Z,8.26
2022-11-16T14:18:43.370Z,8.27
2022-11-16T14:21:19.266Z,8.04
2022-11-16T14:24:07.442Z,8.07
2022-11-16T14:27:17.021Z,8.07
2022-11-16T14:30:00.435Z,8.16
2022-11-16T14:32:31.087Z,8.06
2022-11-16T14:34:59.324Z,8.09
2022-11-16T14:37:28.277Z,8.04
2022-11-16T14:40:06.545Z,8.00
2022-11-16T14:43:09.397Z,7.95
2022-11-16T14:45:35.637Z,7.89
2022-11-16T14:48:13.429Z,7.99
2022-11-16T14:50:41.926Z,7.97
2022-11-16T14:53:09.764Z,7.91
2022-11-16T14:55:42.392Z,7.91
2022-11-16T14:58:20.532Z,7.92
2022-11-16T15:01:05.382Z,7.84
2022-11-16T15:03:48.624Z,7.90
2022-11-16T15:06:15.814Z,8.01
2022-11-16T15:08:46.587Z,7.91
2022-11-16T15:11:49.225Z,7.93
2022-11-16T15:14:19.157Z,7.79
2022-11-16T15:16:51.503Z,7.92
2022-11-16T15:19:19.166Z,7.92
2022-11-16T15:21:54.693Z,7.90
2022-11-16T15:24:32.759Z,7.86
2022-11-16T15:27:02.929Z,7.86
2022-11-16T15:29:30.071Z,7.84
2022-11-16T15:31:56.941Z,7.88
2022-11-16T15:34:23.863Z,7.82
2022-11-16T15:36:51.121Z,7.81
2022-11-16T15:39:20.631Z,7.89
2022-11-16T15:41:47.987Z,7.87
2022-11-16T15:44:17.847Z,7.93
2022-11-16T15:46:49.476Z,7.78
2022-11-16T15:49:28.199Z,7.78
2022-11-16T15:51:55.084Z,7.77
2022-11-16T15:54:30.446Z,7.77
2022-11-16T15:57:05.573Z,7.75
2022-11-16T15:59:35.809Z,7.80
2022-11-16T16:02:03.352Z,7.83
2022-11-16T16:04:30.501Z,7.77
2022-11-16T16:06:59.209Z,7.78
2022-11-16T16:09:27.695Z,7.78
2022-11-16T16:12:18.252Z,7.84
2022-11-16T16:14:45.838Z,7.82
2022-11-16T16:17:30.367Z,7.87
2022-11-16T16:19:59.832Z,7.88
2022-11-16T16:22:30.938Z,7.84
2022-11-16T16:24:58.325Z,7.89
2022-11-16T16:27:27.177Z,7.98
2022-11-16T16:29:56.074Z,7.92
2022-11-16T16:32:25.668Z,7.92
2022-11-16T16:34:53.822Z,7.95
2022-11-16T16:37:21.014Z,8.03
2022-11-16T16:39:47.961Z,8.05
2022-11-16T16:42:16.710Z,8.00
2022-11-16T16:44:44.772Z,8.08
2022-11-16T16:47:12.262Z,7.97
2022-11-16T16:49:39.232Z,7.93
2022-11-16T16:52:07.379Z,7.92
2022-11-16T16:54:34.310Z,7.96
2022-11-16T16:57:04.080Z,7.98
2022-11-16T16:59:31.237Z,7.95
2022-11-16T17:01:58.952Z,7.93
2022-11-16T17:04:25.844Z,8.01
2022-11-16T17:06:53.389Z,8.02
2022-11-16T17:09:20.497Z,8.06
2022-11-16T17:11:48.154Z,8.04
2022-11-16T17:14:15.236Z,8.06
2022-11-16T17:16:42.208Z,8.15
2022-11-16T17:19:09.055Z,8.15
2022-11-16T17:21:36.168Z,8.15
2022-11-16T17:24:03.185Z,8.17
2022-11-16T17:26:30.045Z,8.13
2022-11-16T17:28:57.976Z,8.17
2022-11-16T17:31:25.707Z,8.19
2022-11-16T17:33:57.460Z,8.16
2022-11-16T17:36:24.569Z,8.14
2022-11-16T17:38:51.434Z,8.12
2022-11-16T17:41:21.554Z,8.12
2022-11-16T17:43:51.513Z,8.12
2022-11-16T17:46:21.136Z,8.09
2022-11-16T17:48:48.681Z,8.07
2022-11-16T17:51:22.281Z,8.13
2022-11-16T17:53:49.854Z,8.12
2022-11-16T17:56:19.338Z,8.10
2022-11-16T17:58:46.557Z,8.13
2022-11-16T18:01:14.241Z,8.20
2022-11-16T18:03:41.783Z,8.23
2022-11-16T18:06:11.181Z,8.10
2022-11-16T18:08:38.041Z,7.98
2022-11-16T18:11:10.957Z,7.99
2022-11-16T18:13:38.137Z,7.93
2022-11-16T18:16:12.768Z,7.89
2022-11-16T18:18:40.037Z,7.98
2022-11-16T18:21:08.525Z,7.91
2022-11-16T18:23:36.738Z,7.94
2022-11-16T18:26:11.390Z,7.87
2022-11-16T18:28:38.504Z,7.82
2022-11-16T18:31:07.228Z,7.86
2022-11-16T18:33:36.164Z,7.87
2022-11-16T18:36:04.845Z,7.82
2022-11-16T18:38:32.061Z,7.79
2022-11-16T18:41:15.192Z,7.81
2022-11-16T18:43:49.514Z,7.75
2022-11-16T18:46:17.573Z,7.73
2022-11-16T18:48:46.619Z,7.82
2022-11-16T18:51:14.718Z,7.79
2022-11-16T18:53:41.782Z,7.77
2022-11-16T18:56:09.165Z,7.74
2022-11-16T18:58:49.961Z,7.73
2022-11-16T19:01:19.718Z,7.90
2022-11-16T19:03:46.824Z,7.88
2022-11-16T19:06:15.547Z,7.87
2022-11-16T19:08:42.819Z,7.81
2022-11-16T19:11:11.743Z,7.78
2022-11-16T19:13:39.700Z,7.78
2022-11-16T19:16:07.719Z,7.78
2022-11-16T19:18:35.755Z,7.81
2022-11-16T19:21:14.129Z,7.77
2022-11-16T19:23:42.992Z,7.76
2022-11-16T19:26:12.263Z,7.82
2022-11-16T19:28:41.062Z,7.78
2022-11-16T19:31:09.268Z,7.78
2022-11-16T19:33:36.970Z,7.74
2022-11-16T19:36:15.052Z,7.77
2022-11-16T19:38:42.759Z,7.82
2022-11-16T19:41:11.088Z,7.86
2022-11-16T19:43:38.481Z,7.87
2022-11-16T19:46:07.965Z,7.79
2022-11-16T19:48:35.113Z,7.82
2022-11-16T19:51:12.539Z,7.83
2022-11-16T19:53:39.841Z,7.85
2022-11-16T19:56:08.783Z,7.81
2022-11-16T19:58:37.089Z,7.88
2022-11-16T20:01:12.679Z,7.89
2022-11-16T20:03:41.783Z,7.90
2022-11-16T20:06:10.875Z,7.92
2022-11-16T20:08:38.796Z,7.94
2022-11-16T20:11:20.658Z,7.93
2022-11-16T20:13:48.549Z,7.90
2022-11-16T20:16:17.078Z,7.94
2022-11-16T20:18:44.299Z,7.97
2022-11-16T20:21:21.725Z,7.98
2022-11-16T20:23:49.626Z,8.01
2022-11-16T20:26:16.508Z,7.97
2022-11-16T20:28:43.416Z,7.91
2022-11-16T20:31:15.519Z,7.89
2022-11-16T20:33:47.129Z,7.89
2022-11-16T20:36:14.238Z,7.91
2022-11-16T20:38:41.127Z,7.92
2022-11-16T20:41:31.033Z,7.83
2022-11-16T20:44:00.071Z,7.86
2022-11-16T20:46:28.881Z,7.90
2022-11-16T20:48:57.170Z,7.82
2022-11-16T20:51:24.308Z,7.86
2022-11-16T20:53:52.077Z,7.85
2022-11-16T20:56:19.912Z,7.84
2022-11-16T20:58:48.153Z,7.92
2022-11-16T21:01:20.151Z,7.88
2022-11-16T21:03:47.371Z,7.81
2022-11-16T21:06:14.812Z,7.76
2022-11-16T21:08:41.903Z,7.67
2022-11-16T21:11:17.428Z,7.67
2022-11-16T21:14:06.497Z,7.71
2022-11-16T21:16:33.943Z,7.61
2022-11-16T21:19:01.343Z,7.59
2022-11-16T21:21:28.508Z,7.66
2022-11-16T21:23:55.599Z,7.65
2022-11-16T21:26:24.707Z,7.59
2022-11-16T21:28:52.070Z,7.60
2022-11-16T21:31:25.654Z,7.50
2022-11-16T21:33:53.383Z,7.44
2022-11-16T21:36:22.657Z,7.50
2022-11-16T21:38:50.181Z,7.56
2022-11-16T21:41:18.108Z,7.48
2022-11-16T21:43:45.263Z,7.52
2022-11-16T21:46:17.160Z,7.45
2022-11-16T21:48:44.546Z,7.47
2022-11-16T21:51:13.614Z,7.45
2022-11-16T21:53:40.759Z,7.41
2022-11-16T21:56:10.557Z,7.37
2022-11-16T21:58:39.119Z,7.42
2022-11-16T22:01:06.280Z,7.40
2022-11-16T22:03:33.812Z,7.41
2022-11-16T22:06:21.786Z,7.38
2022-11-16T22:08:48.960Z,7.39
2022-11-16T22:11:16.420Z,7.35
2022-11-16T22:13:43.725Z,7.32
2022-11-16T22:16:17.365Z,7.34
2022-11-16T22:18:44.278Z,7.35
2022-11-16T22:21:11.572Z,7.38
2022-11-16T22:23:39.009Z,7.41
2022-11-16T22:26:15.166Z,7.48
2022-11-16T22:28:42.313Z,7.47
2022-11-16T22:31:11.629Z,7.50
2022-11-16T22:33:38.872Z,7.50
2022-11-16T22:36:09.238Z,7.41
2022-11-16T22:38:36.484Z,7.44
2022-11-16T22:41:03.833Z,7.45
2022-11-16T22:43:32.294Z,7.47
2022-11-16T22:46:02.211Z,7.42
2022-11-16T22:48:33.189Z,7.48
2022-11-16T22:51:04.937Z,7.51
2022-11-16T22:53:31.991Z,7.47
2022-11-16T22:56:06.588Z,7.46
2022-11-16T22:58:34.190Z,7.45
2022-11-16T23:01:01.610Z,7.46
2022-11-16T23:03:29.163Z,7.51
2022-11-16T23:05:56.330Z,7.53
2022-11-16T23:08:24.834Z,7.55
2022-11-16T23:11:26.482Z,7.54
2022-11-16T23:14:12.633Z,7.57
2022-11-16T23:16:40.295Z,7.55
2022-11-16T23:19:28.937Z,7.62
2022-11-16T23:22:15.428Z,7.62
2022-11-16T23:25:01.542Z,7.59
2022-11-16T23:27:53.797Z,7.60
2022-11-16T23:30:21.207Z,7.50
2022-11-16T23:32:48.093Z,7.51
2022-11-16T23:35:15.090Z,7.50
2022-11-16T23:37:59.179Z,7.46
2022-11-16T23:40:28.623Z,7.58
2022-11-16T23:43:14.600Z,7.65
2022-11-16T23:45:42.589Z,7.69
2022-11-16T23:48:11.280Z,7.52
2022-11-16T23:50:38.437Z,7.51
2022-11-16T23:53:06.372Z,7.54
2022-11-16T23:55:34.693Z,7.72
2022-11-16T23:58:01.895Z,7.68
